Yakima, WA (98904)

2:30 PM PST on February 07, 2016 (GMT -0800)
Azores on Englewood | | Change Station
CLOSE
Current Station
Personal Weather Station
Location: Yakima, WA
Elevation: 1140 ft
Nearby Weather Stations

Elev 1140 ft 46.61 °N, 120.54 °W | Updated 12 minutes ago

Clear
Clear
49.5 °F
Feels Like 50 °F
N
1.7
Wind Variable Wind from ESE

Today
High -- | Low -- °F
--% Chance of Precip.
Yesterday
High -- | Low -- °F
Precip. -- in
Pressure 30.63 in
Visibility 10.0 miles
Clouds Clear
Windchill 50 °F
Dew Point 32 °F
Humidity 51%
Rainfall 0.00 in
Snow Depth Not available.
7:18 AM 5:14 PM
Waning Crescent, 1% visible
METAR KYKM 072153Z 28004KT 10SM CLR 10/M02 A3060 RMK AO2 SLP370 T01001022 $
Pressure 30.63 in
Visibility 10.0 miles
Clouds Clear
Windchill 50 °F
Dew Point 32 °F
Humidity 51%
Rainfall 0.00 in
Snow Depth Not available.
7:18 AM 5:14 PM
Waning Crescent, 1% visible
METAR KYKM 072153Z 28004KT 10SM CLR 10/M02 A3060 RMK AO2 SLP370 T01001022 $

10-Day Weather Forecast

Almanac

Astronomy

Feb. 07, 2016 Rise Set
Actual Time
Civil Twilight
Nautical Twilight
Astronomical Twilight
Moon
Length of Visible Light
Length of Day
Tomorrow will be .
, % of the Moon is Illuminated

Today's Extremes

State Highs State Lows

Community

WunderPhotos

Upload Photos

1,891,318 photos uploaded!

WunderBlog® & News

Nearby

Air Quality

  Air Quality AQ Index Pollutant
Not available.

Snow Depth

Station Depth Elevation

Earthquake Activity

City Distance Mag. Time & Date
Minimum magnitude displayed is 2.5.

Coastal Water Temperatures

Place Temperature

Stations

Nearby Weather Stations

Station Location Temp. Windchill Dew Point Humidity Wind Precip. Elev Updated Type
                   

Watches & Warnings

There are currently no watches in effect.